createdAt,value
2022-08-19T00:01:56.744Z,99356.72
2022-08-19T00:04:29.476Z,99370.84
2022-08-19T00:06:57.380Z,99360.19
2022-08-19T00:09:25.705Z,99366.72
2022-08-19T00:11:54.387Z,99365.28
2022-08-19T00:14:23.248Z,99362.19
2022-08-19T00:16:55.031Z,99365.75
2022-08-19T00:19:24.320Z,99367.47
2022-08-19T00:21:52.523Z,99364.19
2022-08-19T00:24:20.826Z,99364.72
2022-08-19T00:26:48.532Z,99357.50
2022-08-19T00:29:18.410Z,99356.72
2022-08-19T00:31:46.218Z,99364.22
2022-08-19T00:34:15.025Z,99353.41
2022-08-19T00:36:43.752Z,99364.09
2022-08-19T00:39:11.954Z,99365.44
2022-08-19T00:41:40.396Z,99364.66
2022-08-19T00:44:26.687Z,99364.31
2022-08-19T00:46:58.391Z,99360.28
2022-08-19T00:49:33.962Z,99346.72
2022-08-19T00:52:03.976Z,99354.16
2022-08-19T00:54:32.528Z,99347.47
2022-08-19T00:57:00.624Z,99353.44
2022-08-19T00:59:53.339Z,99356.47
2022-08-19T01:02:17.684Z,99352.22
2022-08-19T01:04:45.117Z,99354.22
2022-08-19T01:07:13.139Z,99350.84
2022-08-19T01:09:42.987Z,99348.22
2022-08-19T01:12:10.666Z,99349.34
2022-08-19T01:14:40.249Z,99348.66
2022-08-19T01:17:11.595Z,99345.03
2022-08-19T01:19:43.847Z,99342.94
2022-08-19T01:22:14.346Z,99343.75
2022-08-19T01:24:49.703Z,99346.56
2022-08-19T01:27:18.038Z,99344.84
2022-08-19T01:29:45.986Z,99343.94
2022-08-19T01:32:32.356Z,99334.53
2022-08-19T01:35:06.425Z,99334.22
2022-08-19T01:37:51.087Z,99336.09
2022-08-19T01:40:21.315Z,99330.44
2022-08-19T01:42:50.200Z,99333.06
2022-08-19T01:45:18.927Z,99315.63
2022-08-19T01:47:51.697Z,99311.69
2022-08-19T01:50:31.462Z,99311.47
2022-08-19T01:53:02.456Z,99308.84
2022-08-19T01:55:40.884Z,99301.97
2022-08-19T01:58:16.589Z,99293.31
2022-08-19T02:00:44.467Z,99285.34
2022-08-19T02:03:12.578Z,99288.56
2022-08-19T02:05:41.558Z,99285.06
2022-08-19T02:08:09.537Z,99288.44
2022-08-19T02:10:43.326Z,99291.47
2022-08-19T02:13:12.181Z,99292.47
2022-08-19T02:15:39.990Z,99295.62
2022-08-19T02:18:08.408Z,99300.16
2022-08-19T02:20:36.750Z,99299.72
2022-08-19T02:23:04.508Z,99290.97
2022-08-19T02:25:31.915Z,99276.53
2022-08-19T02:27:59.574Z,99275.28
2022-08-19T02:30:27.462Z,99274.31
2022-08-19T02:32:55.112Z,99268.50
2022-08-19T02:35:23.180Z,99288.81
2022-08-19T02:38:09.526Z,99285.84
2022-08-19T02:40:37.046Z,99287.69
2022-08-19T02:43:08.484Z,99280.94
2022-08-19T02:45:40.586Z,99286.66
2022-08-19T02:48:17.900Z,99294.22
2022-08-19T02:50:56.392Z,99299.56
2022-08-19T02:53:26.771Z,99299.69
2022-08-19T02:55:54.632Z,99304.78
2022-08-19T02:58:22.740Z,99305.25
2022-08-19T03:00:53.922Z,99308.84
2022-08-19T03:03:22.231Z,99307.53
2022-08-19T03:05:56.995Z,99297.59
2022-08-19T03:08:26.589Z,99311.84
2022-08-19T03:10:54.933Z,99306.94
2022-08-19T03:13:22.669Z,99304.03
2022-08-19T03:15:50.334Z,99328.91
2022-08-19T03:18:18.355Z,99323.03
2022-08-19T03:20:50.532Z,99326.16
2022-08-19T03:23:18.475Z,99328.97
2022-08-19T03:26:03.166Z,99321.34
2022-08-19T03:28:36.227Z,99328.31
2022-08-19T03:31:44.494Z,99330.31
2022-08-19T03:33:55.251Z,99334.69
2022-08-19T03:36:25.349Z,99335.63
2022-08-19T03:38:57.521Z,99325.91
2022-08-19T03:41:34.397Z,99333.09
2022-08-19T03:44:18.300Z,99333.41
2022-08-19T03:46:48.464Z,99337.06
2022-08-19T03:49:18.517Z,99352.56
2022-08-19T03:51:47.558Z,99349.94
2022-08-19T03:54:17.438Z,99350.50
2022-08-19T03:56:46.065Z,99338.13
2022-08-19T03:59:20.316Z,99341.78
2022-08-19T04:01:48.293Z,99343.50
2022-08-19T04:04:16.045Z,99345.91
2022-08-19T04:06:44.382Z,99358.50
2022-08-19T04:09:12.447Z,99358.84
2022-08-19T04:11:44.969Z,99361.50
2022-08-19T04:14:15.121Z,99363.06
2022-08-19T04:16:43.725Z,99366.50
2022-08-19T04:19:11.497Z,99363.78
2022-08-19T04:21:38.972Z,99366.00
2022-08-19T04:24:06.943Z,99366.78
2022-08-19T04:26:37.158Z,99357.75
2022-08-19T04:29:12.538Z,99365.09
2022-08-19T04:31:42.021Z,99374.84
2022-08-19T04:34:14.737Z,99363.41
2022-08-19T04:36:45.556Z,99363.47
2022-08-19T04:39:18.178Z,99370.50
2022-08-19T04:42:04.397Z,99365.66
2022-08-19T04:44:35.134Z,99379.59
2022-08-19T04:47:11.058Z,99367.31
2022-08-19T04:49:39.024Z,99367.03
2022-08-19T04:52:06.722Z,99369.19
2022-08-19T04:54:38.537Z,99374.44
2022-08-19T04:57:10.727Z,99375.69
2022-08-19T04:59:39.651Z,99382.78
2022-08-19T05:02:09.436Z,99387.56
2022-08-19T05:04:40.263Z,99390.09
2022-08-19T05:07:09.026Z,99382.31
2022-08-19T05:09:56.728Z,99384.59
2022-08-19T05:12:28.919Z,99382.41
2022-08-19T05:14:58.390Z,99381.31
2022-08-19T05:17:29.061Z,99378.19
2022-08-19T05:20:16.346Z,99375.28
2022-08-19T05:22:45.224Z,99376.31
2022-08-19T05:25:15.909Z,99376.72
2022-08-19T05:27:43.872Z,99376.44
2022-08-19T05:30:12.786Z,99377.78
2022-08-19T05:32:41.162Z,99381.25
2022-08-19T05:35:09.259Z,99386.38
2022-08-19T05:37:36.670Z,99385.59
2022-08-19T05:40:04.785Z,99389.19
2022-08-19T05:42:32.886Z,99391.28
2022-08-19T05:45:00.779Z,99390.19
2022-08-19T05:47:28.439Z,99387.03
2022-08-19T05:49:56.188Z,99387.78
2022-08-19T05:52:25.368Z,99384.00
2022-08-19T05:54:56.551Z,99380.06
2022-08-19T05:57:25.205Z,99374.38
2022-08-19T05:59:58.293Z,99379.66
2022-08-19T06:02:27.362Z,99380.66
2022-08-19T06:04:55.207Z,99383.87
2022-08-19T06:07:22.746Z,99379.62
2022-08-19T06:10:01.028Z,99373.00
2022-08-19T06:12:35.398Z,99369.88
2022-08-19T06:15:07.706Z,99368.13
2022-08-19T06:17:36.217Z,99374.00
2022-08-19T06:20:06.441Z,99377.31
2022-08-19T06:22:41.349Z,99371.19
2022-08-19T06:25:10.308Z,99363.63
2022-08-19T06:27:48.306Z,99355.75
2022-08-19T06:30:26.106Z,99361.22
2022-08-19T06:32:53.583Z,99365.62
2022-08-19T06:35:21.130Z,99354.84
2022-08-19T06:37:48.843Z,99354.63
2022-08-19T06:40:16.592Z,99342.75
2022-08-19T06:42:44.857Z,99342.47
2022-08-19T06:45:24.833Z,99341.66
2022-08-19T06:47:55.378Z,99347.91
2022-08-19T06:50:26.300Z,99351.53
2022-08-19T06:52:53.877Z,99358.75
2022-08-19T06:55:21.408Z,99369.84
2022-08-19T06:57:49.360Z,99370.16
2022-08-19T07:00:17.123Z,99379.97
2022-08-19T07:02:49.595Z,99375.19
2022-08-19T07:05:22.077Z,99384.47
2022-08-19T07:07:49.505Z,99384.47
2022-08-19T07:10:19.481Z,99389.66
2022-08-19T07:12:48.551Z,99396.06
2022-08-19T07:15:16.877Z,99396.69
2022-08-19T07:17:46.297Z,99394.25
2022-08-19T07:20:17.854Z,99403.69
2022-08-19T07:22:47.498Z,99399.78
2022-08-19T07:25:15.138Z,99407.09
2022-08-19T07:27:46.360Z,99403.06
2022-08-19T07:30:14.447Z,99393.56
2022-08-19T07:32:41.921Z,99395.91
2022-08-19T07:35:10.598Z,99395.12
2022-08-19T07:37:38.296Z,99390.87
2022-08-19T07:40:08.100Z,99393.00
2022-08-19T07:42:35.925Z,99384.22
2022-08-19T07:45:04.368Z,99383.06
2022-08-19T07:47:47.817Z,99383.75
2022-08-19T07:50:20.697Z,99383.69
2022-08-19T07:52:50.680Z,99387.97
2022-08-19T07:55:42.321Z,99386.19
2022-08-19T07:58:13.616Z,99387.47
2022-08-19T08:00:42.661Z,99395.09
2022-08-19T08:03:11.343Z,99391.75
2022-08-19T08:05:57.339Z,99393.25
2022-08-19T08:08:44.364Z,99397.41
2022-08-19T08:11:20.711Z,99388.56
2022-08-19T08:14:00.480Z,99389.78
2022-08-19T08:16:32.246Z,99385.38
2022-08-19T08:19:00.482Z,99388.94
2022-08-19T08:21:28.784Z,99389.00
2022-08-19T08:23:56.700Z,99383.03
2022-08-19T08:26:24.836Z,99383.91
2022-08-19T08:28:53.378Z,99389.03
2022-08-19T08:31:21.184Z,99378.75
2022-08-19T08:33:49.071Z,99379.19
2022-08-19T08:36:17.536Z,99373.16
2022-08-19T08:38:48.361Z,99365.25
2022-08-19T08:41:53.787Z,99360.16
2022-08-19T08:44:28.527Z,99351.66
2022-08-19T08:46:59.995Z,99347.84
2022-08-19T08:49:52.519Z,99353.50
2022-08-19T08:52:31.833Z,99372.50
2022-08-19T08:55:01.263Z,99371.41
2022-08-19T08:57:42.465Z,99374.47
2022-08-19T09:00:17.553Z,99358.25
2022-08-19T09:02:50.957Z,99360.75
2022-08-19T09:05:22.206Z,99350.88
2022-08-19T09:08:03.658Z,99359.38
2022-08-19T09:10:44.441Z,99360.75
2022-08-19T09:13:38.222Z,99361.50
2022-08-19T09:16:14.307Z,99351.22
2022-08-19T09:18:54.463Z,99352.81
2022-08-19T09:21:33.124Z,99341.97
2022-08-19T09:24:05.494Z,99333.56
2022-08-19T09:26:47.277Z,99336.19
2022-08-19T09:29:22.671Z,99328.97
2022-08-19T09:31:51.020Z,99321.66
2022-08-19T09:34:22.099Z,99329.22
2022-08-19T09:36:54.141Z,99328.22
2022-08-19T09:39:22.780Z,99330.13
2022-08-19T09:41:53.955Z,99336.25
2022-08-19T09:44:21.884Z,99323.66
2022-08-19T09:46:50.132Z,99323.75
2022-08-19T09:49:19.792Z,99322.78
2022-08-19T09:51:52.058Z,99311.16
2022-08-19T09:54:23.652Z,99313.59
2022-08-19T09:56:56.664Z,99304.91
2022-08-19T09:59:24.747Z,99315.25
2022-08-19T10:01:52.791Z,99314.44
2022-08-19T10:04:22.435Z,99312.31
2022-08-19T10:06:53.874Z,99317.13
2022-08-19T10:09:26.128Z,99306.13
2022-08-19T10:12:03.013Z,99300.91
2022-08-19T10:14:31.927Z,99307.59
2022-08-19T10:17:01.338Z,99301.94
2022-08-19T10:19:55.305Z,99301.56
2022-08-19T10:22:23.647Z,99307.44
2022-08-19T10:24:54.564Z,99290.75
2022-08-19T10:27:22.499Z,99290.00
2022-08-19T10:29:50.184Z,99289.63
2022-08-19T10:32:18.262Z,99300.41
2022-08-19T10:34:48.644Z,99294.03
2022-08-19T10:37:23.857Z,99295.75
2022-08-19T10:39:57.034Z,99297.22
2022-08-19T10:42:24.476Z,99290.22
2022-08-19T10:44:52.191Z,99292.34
2022-08-19T10:47:25.911Z,99294.53
2022-08-19T10:50:13.321Z,99289.59
2022-08-19T10:52:49.611Z,99288.00
2022-08-19T10:55:42.223Z,99289.47
2022-08-19T10:58:23.226Z,99285.25
2022-08-19T11:00:59.219Z,99296.84
2022-08-19T11:03:28.940Z,99294.22
2022-08-19T11:06:05.276Z,99285.41
2022-08-19T11:08:35.846Z,99291.44
2022-08-19T11:11:04.338Z,99293.66
2022-08-19T11:13:34.983Z,99290.63
2022-08-19T11:16:08.999Z,99291.87
2022-08-19T11:18:39.788Z,99287.50
2022-08-19T11:21:14.149Z,99282.94
2022-08-19T11:23:41.785Z,99289.69
2022-08-19T11:26:09.470Z,99289.22
2022-08-19T11:28:37.433Z,99282.50
2022-08-19T11:31:05.136Z,99291.06
2022-08-19T11:33:33.701Z,99297.25
2022-08-19T11:36:02.140Z,99290.03
2022-08-19T11:38:30.238Z,99293.16
2022-08-19T11:41:03.450Z,99287.41
2022-08-19T11:43:37.202Z,99290.41
2022-08-19T11:46:08.036Z,99289.50
2022-08-19T11:48:36.076Z,99274.22
2022-08-19T11:51:09.661Z,99274.75
2022-08-19T11:53:37.618Z,99268.91
2022-08-19T11:56:09.094Z,99273.75
2022-08-19T11:58:37.372Z,99268.59
2022-08-19T12:01:09.468Z,99277.59
2022-08-19T12:03:38.653Z,99275.94
2022-08-19T12:06:11.357Z,99275.06
2022-08-19T12:08:39.515Z,99283.28
2022-08-19T12:11:08.867Z,99278.69
2022-08-19T12:13:36.295Z,99276.72
2022-08-19T12:16:24.681Z,99277.44
2022-08-19T12:18:52.362Z,99284.37
2022-08-19T12:21:29.064Z,99280.91
2022-08-19T12:23:58.509Z,99284.22
2022-08-19T12:26:27.932Z,99271.94
2022-08-19T12:28:55.579Z,99276.31
2022-08-19T12:31:22.984Z,99267.22
2022-08-19T12:33:50.658Z,99279.38
2022-08-19T12:36:18.836Z,99265.12
2022-08-19T12:38:46.464Z,99263.81
2022-08-19T12:41:18.699Z,99261.53
2022-08-19T12:43:46.529Z,99239.87
2022-08-19T12:46:15.254Z,99252.19
2022-08-19T12:48:46.482Z,99246.78
2022-08-19T12:51:19.087Z,99247.47
2022-08-19T12:53:47.406Z,99238.56
2022-08-19T12:56:15.810Z,99246.34
2022-08-19T12:58:49.043Z,99248.31
2022-08-19T13:01:21.918Z,99243.97
2022-08-19T13:03:53.492Z,99239.00
2022-08-19T13:06:21.565Z,99234.47
2022-08-19T13:08:49.066Z,99230.16
2022-08-19T13:11:19.069Z,99231.72
2022-08-19T13:13:48.821Z,99231.75
2022-08-19T13:16:16.826Z,99234.94
2022-08-19T13:18:47.817Z,99232.91
2022-08-19T13:21:15.660Z,99234.53
2022-08-19T13:23:43.921Z,99224.16
2022-08-19T13:26:12.662Z,99227.78
2022-08-19T13:28:59.634Z,99230.75
2022-08-19T13:31:52.641Z,99234.47
2022-08-19T13:34:31.550Z,99238.69
2022-08-19T13:36:59.863Z,99233.03
2022-08-19T13:39:28.426Z,99243.72
2022-08-19T13:41:56.151Z,99257.72
2022-08-19T13:44:23.631Z,99265.03
2022-08-19T13:46:54.261Z,99268.94
2022-08-19T13:49:24.072Z,99284.63
2022-08-19T13:51:51.781Z,99282.47
2022-08-19T13:54:19.216Z,99284.16
2022-08-19T13:56:46.922Z,99283.56
2022-08-19T13:59:14.815Z,99298.03
2022-08-19T14:01:42.703Z,99281.69
2022-08-19T14:04:10.438Z,99286.41
2022-08-19T14:06:37.908Z,99282.50
2022-08-19T14:09:05.809Z,99280.22
2022-08-19T14:11:33.534Z,99270.34
2022-08-19T14:14:00.943Z,99273.53
2022-08-19T14:16:28.466Z,99277.63
2022-08-19T14:18:56.193Z,99270.47
2022-08-19T14:21:25.484Z,99277.47
2022-08-19T14:23:53.401Z,99269.97
2022-08-19T14:26:22.505Z,99262.72
2022-08-19T14:28:50.502Z,99254.81
2022-08-19T14:31:19.992Z,99268.87
2022-08-19T14:33:48.417Z,99259.63
2022-08-19T14:36:16.014Z,99264.50
2022-08-19T14:38:44.079Z,99267.97
2022-08-19T14:41:14.008Z,99278.03
2022-08-19T14:43:41.584Z,99284.53
2022-08-19T14:46:09.180Z,99278.78
2022-08-19T14:48:41.525Z,99291.06
2022-08-19T14:51:09.639Z,99278.16
2022-08-19T14:53:37.270Z,99291.44
2022-08-19T14:56:13.923Z,99280.97
2022-08-19T14:58:42.927Z,99281.00
2022-08-19T15:01:12.301Z,99285.00
2022-08-19T15:03:41.542Z,99289.75
2022-08-19T15:06:09.765Z,99297.38
2022-08-19T15:08:41.971Z,99301.81
2022-08-19T15:11:11.790Z,99299.06
2022-08-19T15:13:40.579Z,99308.72
2022-08-19T15:16:10.058Z,99310.34
2022-08-19T15:18:46.427Z,99331.16
2022-08-19T15:21:26.810Z,99345.09
2022-08-19T15:23:56.951Z,99340.44
2022-08-19T15:26:26.184Z,99340.41
2022-08-19T15:28:53.575Z,99346.00
2022-08-19T15:31:25.631Z,99356.34
2022-08-19T15:34:00.272Z,99353.69
2022-08-19T15:36:28.279Z,99343.53
2022-08-19T15:38:57.047Z,99326.03
2022-08-19T15:41:29.059Z,99316.63
2022-08-19T15:44:04.422Z,99291.59
2022-08-19T15:46:33.579Z,99280.16
2022-08-19T15:49:01.590Z,99288.09
2022-08-19T15:51:30.562Z,99292.84
2022-08-19T15:53:59.491Z,99276.69
2022-08-19T15:56:47.405Z,99279.91
2022-08-19T15:59:47.290Z,99271.81
2022-08-19T16:02:37.229Z,99279.84
2022-08-19T16:05:25.975Z,99264.69
2022-08-19T16:07:54.254Z,99262.59
2022-08-19T16:10:26.241Z,99261.16
2022-08-19T16:12:59.079Z,99252.31
2022-08-19T16:15:28.038Z,99255.72
2022-08-19T16:17:58.970Z,99257.59
2022-08-19T16:20:27.929Z,99265.34
2022-08-19T16:22:59.306Z,99276.22
2022-08-19T16:25:29.994Z,99278.38
2022-08-19T16:28:07.939Z,99279.31
2022-08-19T16:30:39.076Z,99285.06
2022-08-19T16:33:07.559Z,99301.81
2022-08-19T16:35:34.971Z,99320.81
2022-08-19T16:38:02.780Z,99333.06
2022-08-19T16:40:30.244Z,99357.78
2022-08-19T16:42:57.659Z,99372.53
2022-08-19T16:45:25.392Z,99388.69
2022-08-19T16:47:52.812Z,99407.84
2022-08-19T16:50:25.369Z,99407.53
2022-08-19T16:53:07.421Z,99401.94
2022-08-19T16:55:34.819Z,99397.06
2022-08-19T16:58:04.407Z,99407.84
2022-08-19T17:00:32.090Z,99409.62
2022-08-19T17:03:10.001Z,99417.75
2022-08-19T17:05:51.038Z,99422.84
2022-08-19T17:08:20.631Z,99409.78
2022-08-19T17:11:16.577Z,99387.84
2022-08-19T17:13:37.574Z,99357.47
2022-08-19T17:16:06.573Z,99306.41
2022-08-19T17:18:34.125Z,99288.94
2022-08-19T17:21:01.906Z,99275.47
2022-08-19T17:23:42.359Z,99254.78
2022-08-19T17:26:17.938Z,99236.78
2022-08-19T17:28:51.411Z,99231.94
2022-08-19T17:31:21.220Z,99210.06
2022-08-19T17:33:49.332Z,99194.28
2022-08-19T17:36:18.480Z,99168.63
2022-08-19T17:38:46.016Z,99176.78
2022-08-19T17:41:13.782Z,99164.44
2022-08-19T17:43:43.891Z,99153.03
2022-08-19T17:46:17.715Z,99157.22
2022-08-19T17:48:54.693Z,99154.37
2022-08-19T17:51:42.394Z,99170.75
2022-08-19T17:54:14.447Z,99177.47
2022-08-19T17:56:43.023Z,99172.34
2022-08-19T17:59:14.106Z,99188.34
2022-08-19T18:01:53.047Z,99210.47
2022-08-19T18:04:26.294Z,99273.00
2022-08-19T18:06:55.602Z,99335.22
2022-08-19T18:09:30.126Z,99394.50
2022-08-19T18:12:13.932Z,99405.16
2022-08-19T18:14:42.085Z,99425.06
2022-08-19T18:17:15.201Z,99382.47
2022-08-19T18:19:44.034Z,99361.63
2022-08-19T18:22:13.266Z,99394.91
2022-08-19T18:24:41.858Z,99424.06
2022-08-19T18:27:10.178Z,99466.25
2022-08-19T18:29:38.664Z,99488.75
2022-08-19T18:32:12.532Z,99530.50
2022-08-19T18:34:42.210Z,99571.84
2022-08-19T18:37:10.518Z,99578.31
2022-08-19T18:39:56.632Z,99554.78
2022-08-19T18:42:43.195Z,99562.53
2022-08-19T18:45:29.644Z,99593.81
2022-08-19T18:48:27.368Z,99604.69
2022-08-19T18:50:57.530Z,99626.91
2022-08-19T18:53:27.723Z,99623.84
2022-08-19T18:55:55.736Z,99605.37
2022-08-19T18:58:35.901Z,99581.50
2022-08-19T19:01:25.511Z,99592.81
2022-08-19T19:03:54.613Z,99539.72
2022-08-19T19:06:34.729Z,99510.81
2022-08-19T19:09:02.323Z,99470.13
2022-08-19T19:11:37.312Z,99424.44
2022-08-19T19:14:16.255Z,99421.37
2022-08-19T19:16:55.453Z,99419.22
2022-08-19T19:19:24.059Z,99460.41
2022-08-19T19:21:53.382Z,99486.53
2022-08-19T19:24:24.235Z,99461.41
2022-08-19T19:26:53.416Z,99399.59
2022-08-19T19:29:21.569Z,99368.31
2022-08-19T19:31:53.060Z,99391.63
2022-08-19T19:34:29.725Z,99395.22
2022-08-19T19:36:57.843Z,99399.72
2022-08-19T19:39:34.059Z,99381.63
2022-08-19T19:42:21.813Z,99384.50
2022-08-19T19:44:52.037Z,99369.66
2022-08-19T19:47:20.018Z,99352.22
2022-08-19T19:52:40.636Z,99362.25
2022-08-19T19:55:09.630Z,99376.63
2022-08-19T19:57:39.865Z,99371.13
2022-08-19T20:00:09.120Z,99388.22
2022-08-19T20:02:36.835Z,99383.97
2022-08-19T20:05:05.376Z,99393.75
2022-08-19T20:07:51.740Z,99453.22
2022-08-19T20:10:19.475Z,99593.31
2022-08-19T20:12:47.013Z,99596.81
2022-08-19T20:15:14.941Z,99603.72
2022-08-19T20:17:43.138Z,99646.81
2022-08-19T20:20:11.992Z,99646.00
2022-08-19T20:22:47.415Z,99662.66
2022-08-19T20:25:16.998Z,99643.37
2022-08-19T20:27:44.902Z,99672.34
2022-08-19T20:30:19.441Z,99676.75
2022-08-19T20:32:51.073Z,99667.97
2022-08-19T20:35:21.082Z,99671.50
2022-08-19T20:37:49.151Z,99674.09
2022-08-19T20:40:20.637Z,99699.56
2022-08-19T20:42:50.716Z,99718.00
2022-08-19T20:45:32.849Z,99725.03
2022-08-19T20:48:03.759Z,99719.75
2022-08-19T20:50:33.064Z,99719.78
2022-08-19T20:53:01.057Z,99722.41
2022-08-19T20:55:30.525Z,99713.59
2022-08-19T20:57:58.740Z,99729.03
2022-08-19T21:00:26.525Z,99714.00
2022-08-19T21:02:54.246Z,99715.72
2022-08-19T21:05:21.685Z,99696.91
2022-08-19T21:07:49.132Z,99686.88
2022-08-19T21:10:16.838Z,99691.00
2022-08-19T21:12:44.479Z,99695.84
2022-08-19T21:15:12.175Z,99691.59
2022-08-19T21:17:40.150Z,99686.00
2022-08-19T21:20:09.900Z,99662.47
2022-08-19T21:22:37.522Z,99640.94
2022-08-19T21:25:06.148Z,99595.84
2022-08-19T21:27:33.573Z,99580.00
2022-08-19T21:30:00.997Z,99539.09
2022-08-19T21:32:28.750Z,99514.94
2022-08-19T21:34:56.851Z,99504.56
2022-08-19T21:37:25.260Z,99513.63
2022-08-19T21:39:56.621Z,99526.44
2022-08-19T21:42:24.126Z,99495.88
2022-08-19T21:44:51.972Z,99492.88
2022-08-19T21:47:19.670Z,99494.88
2022-08-19T21:49:47.117Z,99497.44
2022-08-19T21:52:23.798Z,99460.47
2022-08-19T21:54:51.746Z,99455.03
2022-08-19T21:57:19.195Z,99458.94
2022-08-19T21:59:46.623Z,99440.38
2022-08-19T22:02:20.434Z,99449.38
2022-08-19T22:04:52.343Z,99449.84
2022-08-19T22:07:20.976Z,99436.87
2022-08-19T22:09:50.193Z,99430.16
2022-08-19T22:12:26.752Z,99406.34
2022-08-19T22:14:55.395Z,99385.78
2022-08-19T22:17:23.525Z,99405.19
2022-08-19T22:19:52.516Z,99381.22
2022-08-19T22:22:24.190Z,99405.31
2022-08-19T22:24:52.514Z,99411.38
2022-08-19T22:27:20.506Z,99413.78
2022-08-19T22:29:47.933Z,99397.03
2022-08-19T22:32:26.878Z,99394.62
2022-08-19T22:35:00.588Z,99396.81
2022-08-19T22:37:31.787Z,99400.50
2022-08-19T22:40:03.203Z,99388.03
2022-08-19T22:42:33.460Z,99362.81
2022-08-19T22:45:00.880Z,99363.41
2022-08-19T22:47:30.150Z,99381.16
2022-08-19T22:50:02.018Z,99378.25
2022-08-19T22:52:29.772Z,99354.13
2022-08-19T22:55:00.904Z,99349.00
2022-08-19T22:57:28.634Z,99332.47
2022-08-19T22:59:58.885Z,99333.00
2022-08-19T23:02:38.421Z,99342.66
2022-08-19T23:05:08.661Z,99339.03
2022-08-19T23:07:37.223Z,99338.56
2022-08-19T23:10:06.624Z,99334.25
2022-08-19T23:12:38.752Z,99343.22
2022-08-19T23:15:10.199Z,99345.06
2022-08-19T23:17:37.672Z,99338.94
2022-08-19T23:20:06.290Z,99345.56
2022-08-19T23:22:35.264Z,99353.03
2022-08-19T23:25:06.807Z,99359.13
2022-08-19T23:27:53.312Z,99357.72
2022-08-19T23:30:27.052Z,99347.03
2022-08-19T23:32:56.563Z,99346.31
2022-08-19T23:35:25.550Z,99331.16
2022-08-19T23:37:53.108Z,99329.72
2022-08-19T23:40:21.919Z,99326.25
2022-08-19T23:42:51.721Z,99315.56
2022-08-19T23:45:23.616Z,99327.94
2022-08-19T23:47:53.281Z,99334.44
2022-08-19T23:50:22.056Z,99325.66
2022-08-19T23:52:53.482Z,99322.25
2022-08-19T23:55:23.716Z,99324.19
2022-08-19T23:57:51.815Z,99320.63
